createdAt,value
2019-05-06T00:01:35.068Z,7.37
2019-05-06T00:04:06.322Z,7.47
2019-05-06T00:06:35.999Z,7.00
2019-05-06T00:09:06.507Z,7.47
2019-05-06T00:11:37.876Z,7.37
2019-05-06T00:14:07.634Z,8.63
2019-05-06T00:16:37.619Z,8.23
2019-05-06T00:19:07.381Z,7.90
2019-05-06T00:21:37.064Z,7.87
2019-05-06T00:24:06.899Z,8.17
2019-05-06T00:26:57.342Z,7.03
2019-05-06T00:29:28.158Z,9.40
2019-05-06T00:31:57.993Z,7.23
2019-05-06T00:34:27.847Z,8.07
2019-05-06T00:36:57.843Z,7.60
2019-05-06T00:39:46.534Z,6.83
2019-05-06T00:42:29.826Z,7.60
2019-05-06T00:44:59.699Z,7.50
2019-05-06T00:47:29.623Z,7.47
2019-05-06T00:49:59.383Z,7.20
2019-05-06T00:52:29.063Z,7.87
2019-05-06T00:54:58.772Z,7.23
2019-05-06T00:57:44.101Z,7.47
2019-05-06T01:00:18.496Z,7.10
2019-05-06T01:02:48.368Z,7.90
2019-05-06T01:05:18.305Z,7.85
2019-05-06T01:07:48.175Z,7.87
2019-05-06T01:10:18.709Z,7.87
2019-05-06T01:12:57.926Z,7.53
2019-05-06T01:15:29.392Z,7.60
2019-05-06T01:17:59.142Z,7.77
2019-05-06T01:20:30.108Z,7.63
2019-05-06T01:22:59.808Z,8.07
2019-05-06T01:25:29.494Z,8.23
2019-05-06T01:27:59.165Z,6.70
2019-05-06T01:30:29.297Z,7.77
2019-05-06T01:32:58.972Z,6.90
2019-05-06T01:35:28.745Z,7.87
2019-05-06T01:38:16.103Z,7.83
2019-05-06T01:40:55.035Z,7.13
2019-05-06T01:43:28.518Z,6.70
2019-05-06T01:45:58.289Z,7.33
2019-05-06T01:48:45.930Z,7.77
2019-05-06T01:51:17.802Z,8.73
2019-05-06T01:53:47.662Z,7.63
2019-05-06T01:56:17.621Z,7.25
2019-05-06T01:58:47.472Z,7.10
2019-05-06T02:01:17.301Z,8.40
2019-05-06T02:03:47.061Z,7.28
2019-05-06T02:06:18.193Z,7.40
2019-05-06T02:08:47.876Z,7.93
2019-05-06T02:11:17.643Z,7.73
2019-05-06T02:13:47.323Z,7.97
2019-05-06T02:16:17.028Z,10.23
2019-05-06T02:18:46.907Z,8.05
2019-05-06T02:21:24.537Z,7.72
2019-05-06T02:23:59.493Z,7.83
2019-05-06T02:26:29.180Z,7.73
2019-05-06T02:29:00.513Z,7.17
2019-05-06T02:31:48.931Z,8.40
2019-05-06T02:34:26.793Z,8.13
2019-05-06T02:52:24.770Z,9.17
2019-05-06T02:54:54.490Z,9.33
2019-05-06T02:57:24.488Z,9.73
2019-05-06T02:59:55.410Z,9.50
2019-05-06T03:02:38.617Z,8.27
2019-05-06T03:04:56.904Z,9.10
2019-05-06T03:07:26.647Z,8.90
2019-05-06T03:09:56.384Z,9.00
2019-05-06T03:12:26.322Z,8.80
2019-05-06T03:14:56.022Z,8.50
2019-05-06T03:17:25.717Z,8.60
2019-05-06T03:19:57.041Z,8.40
2019-05-06T03:22:35.447Z,8.13
2019-05-06T03:25:13.402Z,9.13
2019-05-06T03:27:43.851Z,9.87
2019-05-06T03:30:16.662Z,8.57
2019-05-06T03:33:20.234Z,8.37
2019-05-06T03:35:33.126Z,9.50
2019-05-06T03:37:48.299Z,8.83
2019-05-06T03:40:18.372Z,10.33
2019-05-06T03:42:48.054Z,8.37
2019-05-06T03:45:33.544Z,9.07
2019-05-06T03:48:13.755Z,9.60
2019-05-06T03:50:44.143Z,10.30
2019-05-06T03:53:14.293Z,9.63
2019-05-06T03:55:47.149Z,8.77
2019-05-06T03:58:23.654Z,9.70
2019-05-06T04:00:53.061Z,9.97
2019-05-06T04:03:42.046Z,9.00
2019-05-06T04:05:55.945Z,9.60
2019-05-06T04:08:24.789Z,8.73
2019-05-06T04:10:53.845Z,8.97
2019-05-06T04:13:24.252Z,9.20
2019-05-06T04:16:23.309Z,9.53
2019-05-06T04:19:03.846Z,8.93
2019-05-06T04:21:39.581Z,8.70
2019-05-06T04:24:17.637Z,8.40
2019-05-06T04:27:03.257Z,9.70
2019-05-06T04:29:42.662Z,10.90
2019-05-06T04:32:13.818Z,9.10
2019-05-06T04:34:43.953Z,10.50
2019-05-06T04:37:14.470Z,9.90
2019-05-06T04:39:44.738Z,8.87
2019-05-06T04:42:15.173Z,9.33
2019-05-06T04:44:45.017Z,9.70
2019-05-06T04:47:15.001Z,9.20
2019-05-06T04:49:44.857Z,10.87
2019-05-06T04:52:14.825Z,10.77
2019-05-06T04:54:44.502Z,9.83
2019-05-06T04:57:14.466Z,10.97
2019-05-06T04:59:45.520Z,11.97
2019-05-06T05:02:15.344Z,11.90
2019-05-06T05:04:45.104Z,10.50
2019-05-06T05:07:14.908Z,10.23
2019-05-06T05:09:47.960Z,10.47
2019-05-06T05:12:33.667Z,10.17
2019-05-06T05:15:23.036Z,10.10
2019-05-06T05:18:13.072Z,9.63
2019-05-06T05:20:46.526Z,9.63
2019-05-06T05:23:14.952Z,10.50
2019-05-06T05:25:47.886Z,9.83
2019-05-06T05:28:17.654Z,10.27
2019-05-06T05:30:47.586Z,10.00
2019-05-06T05:33:17.529Z,10.97
2019-05-06T05:35:47.917Z,9.80
2019-05-06T05:38:18.235Z,10.95
2019-05-06T05:40:48.963Z,10.20
2019-05-06T05:43:28.430Z,10.43
2019-05-06T05:45:58.258Z,10.57
2019-05-06T05:48:51.974Z,10.77
2019-05-06T05:51:22.301Z,9.70
2019-05-06T05:53:52.431Z,10.50
2019-05-06T05:56:24.005Z,10.03
2019-05-06T05:58:53.966Z,10.63
2019-05-06T06:01:25.507Z,10.50
2019-05-06T06:03:55.295Z,11.17
2019-05-06T06:06:23.595Z,10.93
2019-05-06T06:08:52.427Z,10.53
2019-05-06T06:11:32.835Z,10.40
2019-05-06T06:14:05.003Z,8.67
2019-05-06T06:16:52.663Z,11.63
2019-05-06T06:19:32.928Z,11.10
2019-05-06T06:22:04.369Z,11.03
2019-05-06T06:24:34.152Z,9.77
2019-05-06T06:27:03.108Z,9.27
2019-05-06T06:29:32.360Z,10.53
2019-05-06T06:32:08.932Z,10.30
2019-05-06T06:34:42.795Z,9.53
2019-05-06T06:37:29.089Z,10.20
2019-05-06T06:39:57.748Z,9.93
2019-05-06T06:42:26.029Z,9.97
2019-05-06T06:44:54.546Z,9.73
2019-05-06T06:47:22.829Z,8.63
2019-05-06T06:49:53.289Z,9.33
2019-05-06T06:52:23.187Z,9.40
2019-05-06T06:54:52.816Z,8.83
2019-05-06T06:57:33.853Z,9.30
2019-05-06T07:00:19.195Z,8.97
2019-05-06T07:02:52.493Z,9.50
2019-05-06T07:05:33.650Z,9.45
2019-05-06T07:08:02.150Z,8.53
2019-05-06T07:10:32.272Z,8.23
2019-05-06T07:12:58.916Z,8.33
2019-05-06T07:15:26.348Z,7.90
2019-05-06T07:17:53.778Z,9.23
2019-05-06T07:20:23.061Z,7.27
2019-05-06T07:22:52.898Z,7.93
2019-05-06T07:25:22.114Z,7.15
2019-05-06T07:27:49.039Z,7.20
2019-05-06T07:30:16.481Z,7.20
2019-05-06T07:32:43.902Z,7.80
2019-05-06T07:35:13.019Z,7.23
2019-05-06T07:37:42.272Z,6.87
2019-05-06T07:40:09.560Z,7.43
2019-05-06T07:42:36.986Z,7.37
2019-05-06T07:45:07.282Z,7.10
2019-05-06T07:47:36.184Z,6.77
2019-05-06T07:50:05.577Z,6.63
2019-05-06T07:52:34.461Z,6.23
2019-05-06T07:55:04.432Z,6.57
2019-05-06T07:57:33.317Z,7.20
2019-05-06T08:00:03.323Z,6.17
2019-05-06T08:02:32.343Z,6.43
2019-05-06T08:05:02.587Z,6.33
2019-05-06T08:07:33.274Z,5.10
2019-05-06T08:10:02.389Z,5.30
2019-05-06T08:12:32.666Z,4.93
2019-05-06T08:15:05.241Z,5.03
2019-05-06T08:17:38.401Z,5.43
2019-05-06T08:20:09.026Z,5.10
2019-05-06T08:23:03.575Z,5.67
2019-05-06T08:26:11.645Z,5.53
2019-05-06T08:28:38.528Z,4.80
2019-05-06T08:31:02.378Z,4.77
2019-05-06T08:33:32.793Z,4.80
2019-05-06T08:36:11.727Z,4.10
2019-05-06T08:38:53.350Z,4.80
2019-05-06T08:41:23.088Z,5.20
2019-05-06T08:43:53.009Z,4.83
2019-05-06T08:46:23.445Z,4.80
2019-05-06T08:48:52.502Z,4.80
2019-05-06T08:51:33.174Z,5.13
2019-05-06T08:54:07.744Z,5.80
2019-05-06T08:56:36.030Z,6.20
2019-05-06T08:59:04.399Z,6.17
2019-05-06T09:01:38.607Z,10.63
2019-05-06T09:04:12.371Z,5.90
2019-05-06T09:06:37.086Z,4.37
2019-05-06T09:09:05.824Z,4.47
2019-05-06T09:11:35.741Z,4.40
2019-05-06T09:14:04.052Z,4.00
2019-05-06T09:16:33.062Z,4.05
2019-05-06T09:19:04.425Z,4.47
2019-05-06T09:21:33.515Z,4.95
2019-05-06T09:24:02.229Z,5.10
2019-05-06T09:26:38.985Z,4.20
2019-05-06T09:29:12.846Z,4.77
2019-05-06T09:31:46.814Z,3.80
2019-05-06T09:34:24.380Z,3.43
2019-05-06T09:37:13.309Z,4.30
2019-05-06T09:39:43.067Z,4.23
2019-05-06T09:42:12.791Z,4.58
2019-05-06T09:44:42.751Z,4.40
2019-05-06T09:47:15.490Z,4.60
2019-05-06T09:49:43.808Z,4.10
2019-05-06T09:52:13.026Z,4.80
2019-05-06T09:54:47.355Z,4.37
2019-05-06T09:57:22.036Z,4.03
2019-05-06T09:59:52.644Z,4.10
2019-05-06T10:02:23.036Z,4.07
2019-05-06T10:04:52.451Z,4.47
2019-05-06T10:07:22.545Z,3.60
2019-05-06T10:09:52.638Z,4.03
2019-05-06T10:12:20.700Z,4.30
2019-05-06T10:14:48.991Z,4.03
2019-05-06T10:17:17.287Z,4.35
2019-05-06T10:19:45.586Z,3.93
2019-05-06T10:22:13.875Z,4.33
2019-05-06T10:24:43.228Z,4.93
2019-05-06T10:27:12.244Z,4.97
2019-05-06T10:29:48.646Z,4.47
2019-05-06T10:32:32.813Z,5.23
2019-05-06T10:35:02.864Z,4.80
2019-05-06T10:37:33.578Z,5.37
2019-05-06T10:40:03.234Z,5.07
2019-05-06T10:42:32.494Z,5.85
2019-05-06T10:45:01.836Z,5.63
2019-05-06T10:47:33.051Z,5.40
2019-05-06T10:50:03.976Z,6.45
2019-05-06T10:52:52.663Z,6.00
2019-05-06T10:55:23.230Z,5.20
2019-05-06T10:57:53.256Z,5.50
2019-05-06T11:00:24.115Z,5.42
2019-05-06T11:03:14.835Z,5.70
2019-05-06T11:05:44.548Z,5.17
2019-05-06T11:08:14.467Z,5.20
2019-05-06T11:10:45.383Z,7.57
2019-05-06T11:13:15.743Z,6.15
2019-05-06T11:15:45.539Z,5.20
2019-05-06T11:18:15.291Z,5.17
2019-05-06T11:20:44.968Z,5.47
2019-05-06T11:23:15.125Z,6.73
2019-05-06T11:25:44.877Z,6.53
2019-05-06T11:28:35.005Z,6.33
2019-05-06T11:31:26.406Z,6.30
2019-05-06T11:34:03.977Z,7.03
2019-05-06T11:36:52.701Z,6.37
2019-05-06T11:39:23.627Z,5.80
2019-05-06T11:42:14.450Z,5.60
2019-05-06T11:44:24.684Z,5.47
2019-05-06T11:46:54.344Z,5.33
2019-05-06T11:49:23.433Z,5.87
2019-05-06T11:51:51.765Z,6.37
2019-05-06T11:54:23.563Z,6.65
2019-05-06T11:56:54.375Z,6.57
2019-05-06T11:59:22.681Z,5.83
2019-05-06T12:01:53.905Z,6.50
2019-05-06T12:04:22.996Z,6.00
2019-05-06T12:07:09.997Z,6.93
2019-05-06T12:09:22.643Z,6.70
2019-05-06T12:11:52.821Z,6.27
2019-05-06T12:14:22.631Z,6.70
2019-05-06T12:16:54.853Z,6.93
2019-05-06T12:19:22.580Z,7.33
2019-05-06T12:21:50.976Z,8.03
2019-05-06T12:24:19.264Z,7.47
2019-05-06T12:26:47.646Z,9.33
2019-05-06T12:29:15.951Z,9.10
2019-05-06T12:31:45.724Z,9.30
2019-05-06T12:34:16.308Z,8.50
2019-05-06T12:36:44.616Z,9.23
2019-05-06T12:39:22.990Z,8.55
2019-05-06T12:41:58.049Z,9.03
2019-05-06T12:44:26.342Z,9.63
2019-05-06T12:47:13.456Z,9.03
2019-05-06T12:49:42.661Z,10.40
2019-05-06T12:52:12.410Z,9.65
2019-05-06T12:54:42.953Z,9.97
2019-05-06T12:57:12.563Z,10.50
2019-05-06T12:59:42.578Z,9.40
2019-05-06T13:02:13.194Z,9.30
2019-05-06T13:04:51.544Z,9.33
2019-05-06T13:07:15.922Z,9.68
2019-05-06T13:09:45.459Z,10.97
2019-05-06T13:12:16.178Z,9.95
2019-05-06T13:14:44.484Z,9.93
2019-05-06T13:17:14.591Z,10.38
2019-05-06T13:19:43.497Z,11.77
2019-05-06T13:22:13.616Z,11.20
2019-05-06T13:24:41.925Z,11.23
2019-05-06T13:27:12.635Z,11.10
2019-05-06T13:29:42.863Z,10.97
2019-05-06T13:32:13.145Z,10.90
2019-05-06T13:34:42.449Z,12.13
2019-05-06T13:37:12.731Z,11.63
2019-05-06T13:39:43.354Z,11.67
2019-05-06T13:42:13.226Z,11.33
2019-05-06T13:44:42.523Z,10.87
2019-05-06T13:47:15.341Z,11.15
2019-05-06T13:49:53.835Z,12.37
2019-05-06T13:52:25.609Z,12.20
2019-05-06T13:54:54.179Z,11.03
2019-05-06T13:57:22.572Z,11.83
2019-05-06T13:59:53.257Z,11.90
2019-05-06T14:02:46.068Z,10.57
2019-05-06T14:05:14.387Z,11.53
2019-05-06T14:07:43.459Z,10.20
2019-05-06T14:10:13.181Z,9.27
2019-05-06T14:12:42.667Z,11.87
2019-05-06T14:15:12.502Z,10.33
2019-05-06T14:17:42.350Z,11.17
2019-05-06T14:20:12.550Z,12.83
2019-05-06T14:22:43.601Z,11.40
2019-05-06T14:25:23.998Z,12.40
2019-05-06T14:27:55.983Z,12.80
2019-05-06T14:30:44.377Z,13.00
2019-05-06T14:33:16.030Z,12.03
2019-05-06T14:35:45.996Z,11.67
2019-05-06T14:38:16.864Z,11.50
2019-05-06T14:41:08.722Z,11.00
2019-05-06T14:43:38.512Z,11.33
2019-05-06T14:46:08.275Z,11.00
2019-05-06T14:48:39.302Z,9.33
2019-05-06T14:51:09.045Z,9.33
2019-05-06T14:53:39.110Z,10.43
2019-05-06T14:56:32.078Z,11.07
2019-05-06T14:59:05.942Z,10.23
2019-05-06T15:01:37.085Z,10.53
2019-05-06T15:04:06.936Z,10.27
2019-05-06T15:06:36.894Z,9.30
2019-05-06T15:09:13.121Z,10.00
2019-05-06T15:11:43.442Z,10.37
2019-05-06T15:14:13.442Z,10.20
2019-05-06T15:16:43.181Z,9.10
2019-05-06T15:19:13.224Z,10.05
2019-05-06T15:21:43.293Z,9.33
2019-05-06T15:24:14.257Z,10.43
2019-05-06T15:26:44.450Z,9.80
2019-05-06T15:29:14.208Z,9.73
2019-05-06T15:32:03.177Z,11.13
2019-05-06T15:34:42.278Z,10.43
2019-05-06T15:37:17.190Z,10.70
2019-05-06T15:39:45.515Z,10.43
2019-05-06T15:42:14.043Z,10.73
2019-05-06T15:44:42.892Z,10.17
2019-05-06T15:47:13.196Z,10.50
2019-05-06T15:49:42.837Z,9.07
2019-05-06T15:52:12.635Z,9.47
2019-05-06T15:54:43.026Z,9.77
2019-05-06T15:57:12.914Z,8.60
2019-05-06T15:59:44.538Z,9.90
2019-05-06T16:02:14.163Z,10.03
2019-05-06T16:04:43.872Z,9.60
2019-05-06T16:07:13.563Z,9.30
2019-05-06T16:09:43.322Z,8.80
2019-05-06T16:12:13.003Z,10.50
2019-05-06T16:14:43.733Z,10.43
2019-05-06T16:17:15.189Z,9.57
2019-05-06T16:19:44.990Z,10.97
2019-05-06T16:22:15.918Z,12.07
2019-05-06T16:24:52.930Z,11.50
2019-05-06T16:27:22.931Z,12.55
2019-05-06T16:29:53.140Z,12.47
2019-05-06T16:32:22.844Z,12.63
2019-05-06T16:34:52.796Z,12.90
2019-05-06T16:37:22.565Z,12.15
2019-05-06T16:40:06.461Z,12.70
2019-05-06T16:42:36.399Z,12.33
2019-05-06T16:45:07.555Z,12.10
2019-05-06T16:47:37.725Z,12.93
2019-05-06T16:50:12.987Z,12.57
2019-05-06T16:52:44.912Z,13.77
2019-05-06T16:55:14.962Z,13.97
2019-05-06T16:57:46.782Z,14.03
2019-05-06T17:00:17.464Z,13.53
2019-05-06T17:02:57.961Z,14.47
2019-05-06T17:05:36.499Z,13.63
2019-05-06T17:08:04.813Z,14.43
2019-05-06T17:10:33.116Z,14.43
2019-05-06T17:13:02.931Z,15.63
2019-05-06T17:15:32.712Z,15.40
2019-05-06T17:18:03.166Z,13.13
2019-05-06T17:20:32.598Z,16.53
2019-05-06T17:23:02.944Z,14.60
2019-05-06T17:25:32.897Z,14.07
2019-05-06T17:28:15.604Z,14.77
2019-05-06T17:30:54.451Z,12.67
2019-05-06T17:33:37.098Z,16.40
2019-05-06T17:36:06.507Z,14.87
2019-05-06T17:38:41.809Z,14.20
2019-05-06T17:41:12.373Z,13.15
2019-05-06T17:43:44.010Z,15.10
2019-05-06T17:46:14.760Z,15.50
2019-05-06T17:48:48.857Z,16.30
2019-05-06T17:51:21.367Z,15.50
2019-05-06T17:53:52.841Z,15.20
2019-05-06T17:56:22.680Z,15.90
2019-05-06T17:58:53.200Z,17.93
2019-05-06T18:01:28.433Z,17.20
2019-05-06T18:03:58.111Z,16.13
2019-05-06T18:06:28.131Z,17.42
2019-05-06T18:08:57.845Z,17.23
2019-05-06T18:11:27.534Z,17.60
2019-05-06T18:13:57.313Z,17.83
2019-05-06T18:16:27.018Z,15.67
2019-05-06T18:18:56.721Z,17.20
2019-05-06T18:21:26.395Z,22.53
2019-05-06T18:23:56.108Z,17.93
2019-05-06T18:26:25.806Z,17.77
2019-05-06T18:28:58.102Z,14.40
2019-05-06T18:31:26.971Z,15.50
2019-05-06T18:33:56.978Z,16.10
2019-05-06T18:36:26.826Z,14.60
2019-05-06T18:38:56.526Z,14.77
2019-05-06T18:41:25.146Z,15.80
2019-05-06T18:43:53.779Z,17.37
2019-05-06T18:46:23.837Z,19.27
2019-05-06T18:48:52.592Z,17.97
2019-05-06T18:51:22.326Z,17.60
2019-05-06T18:53:52.365Z,17.40
2019-05-06T18:56:22.199Z,18.13
2019-05-06T18:58:49.412Z,18.13
2019-05-06T19:01:16.965Z,18.73
2019-05-06T19:03:44.407Z,18.43
2019-05-06T19:06:12.068Z,16.43
2019-05-06T19:08:39.425Z,17.20
2019-05-06T19:11:06.957Z,16.90
2019-05-06T19:13:34.538Z,19.00
2019-05-06T19:16:02.819Z,18.07
2019-05-06T19:18:30.252Z,18.23
2019-05-06T19:20:57.698Z,18.97
2019-05-06T19:23:25.224Z,17.20
2019-05-06T19:25:52.781Z,17.73
2019-05-06T19:28:22.008Z,15.85
2019-05-06T19:30:49.468Z,15.90
2019-05-06T19:33:16.898Z,19.30
2019-05-06T19:35:44.367Z,20.53
2019-05-06T19:38:12.533Z,20.97
2019-05-06T19:40:40.003Z,20.37
2019-05-06T19:43:12.259Z,21.33
2019-05-06T19:45:42.247Z,22.10
2019-05-06T19:48:13.375Z,19.70
2019-05-06T19:50:43.521Z,18.77
2019-05-06T19:53:13.237Z,18.42
2019-05-06T19:55:46.687Z,16.70
2019-05-06T19:58:14.399Z,16.43
2019-05-06T20:00:44.169Z,20.87
2019-05-06T20:03:13.845Z,20.65
2019-05-06T20:06:07.267Z,17.67
2019-05-06T20:08:48.547Z,21.13
2019-05-06T20:11:24.643Z,19.80
2019-05-06T20:13:54.321Z,20.30
2019-05-06T20:16:24.015Z,19.20
2019-05-06T20:18:53.771Z,21.00
2019-05-06T20:21:24.513Z,17.70
2019-05-06T20:23:54.216Z,20.53
2019-05-06T20:26:23.929Z,19.07
2019-05-06T20:28:53.870Z,19.00
2019-05-06T20:31:23.643Z,16.50
2019-05-06T20:33:53.337Z,17.40
2019-05-06T20:36:23.006Z,16.37
2019-05-06T20:38:52.700Z,13.90
2019-05-06T20:41:22.465Z,14.40
2019-05-06T20:43:52.162Z,14.40
2019-05-06T20:46:22.084Z,13.93
2019-05-06T20:48:52.981Z,14.03
2019-05-06T20:51:22.762Z,15.50
2019-05-06T20:53:52.433Z,14.73
2019-05-06T20:56:22.202Z,13.07
2019-05-06T20:58:52.818Z,14.20
2019-05-06T21:01:23.684Z,12.83
2019-05-06T21:03:53.370Z,13.20
2019-05-06T21:06:23.040Z,12.53
2019-05-06T21:08:53.088Z,12.98
2019-05-06T21:11:28.856Z,14.90
2019-05-06T21:13:54.136Z,14.63
2019-05-06T21:16:23.814Z,13.97
2019-05-06T21:18:53.501Z,14.17
2019-05-06T21:21:23.193Z,14.40
2019-05-06T21:23:54.083Z,14.47
2019-05-06T21:26:23.770Z,15.13
2019-05-06T21:28:53.468Z,14.90
2019-05-06T21:31:23.158Z,13.40
2019-05-06T21:33:52.857Z,13.93
2019-05-06T21:36:23.132Z,13.93
2019-05-06T21:38:53.945Z,14.60
2019-05-06T21:41:23.624Z,14.60
2019-05-06T21:43:53.297Z,13.93
2019-05-06T21:46:22.994Z,14.93
2019-05-06T21:48:53.014Z,15.00
2019-05-06T21:51:23.824Z,14.60
2019-05-06T21:53:53.653Z,15.47
2019-05-06T21:56:23.481Z,16.83
2019-05-06T21:58:53.239Z,15.30
2019-05-06T22:01:23.455Z,16.63
2019-05-06T22:03:53.158Z,14.73
2019-05-06T22:06:23.196Z,15.83
2019-05-06T22:08:52.881Z,15.07
2019-05-06T22:11:25.209Z,16.17
2019-05-06T22:14:00.797Z,14.83
2019-05-06T22:16:26.346Z,14.80
2019-05-06T22:18:56.022Z,15.20
2019-05-06T22:21:26.243Z,16.07
2019-05-06T22:23:57.723Z,14.63
2019-05-06T22:26:28.471Z,15.23
2019-05-06T22:28:58.681Z,13.53
2019-05-06T22:31:29.349Z,15.47
2019-05-06T22:33:59.195Z,14.97
2019-05-06T22:36:28.897Z,15.17
2019-05-06T22:38:58.579Z,14.40
2019-05-06T22:41:28.611Z,14.73
2019-05-06T22:44:12.146Z,16.90
2019-05-06T22:46:29.818Z,13.70
2019-05-06T22:48:59.505Z,14.47
2019-05-06T22:51:29.202Z,14.03
2019-05-06T22:53:57.497Z,13.33
2019-05-06T22:56:26.081Z,13.30
2019-05-06T22:58:55.799Z,15.43
2019-05-06T23:01:54.292Z,13.40
2019-05-06T23:04:24.113Z,14.85
2019-05-06T23:06:53.054Z,12.87
2019-05-06T23:09:24.876Z,13.67
2019-05-06T23:11:55.352Z,14.67
2019-05-06T23:14:31.291Z,12.77
2019-05-06T23:16:57.150Z,13.47
2019-05-06T23:19:26.842Z,12.65
2019-05-06T23:21:57.660Z,12.83
2019-05-06T23:24:27.357Z,11.63
2019-05-06T23:26:57.044Z,13.03
2019-05-06T23:29:26.735Z,12.83
2019-05-06T23:31:56.710Z,12.43
2019-05-06T23:34:26.405Z,12.17
2019-05-06T23:37:27.084Z,12.70
2019-05-06T23:40:38.606Z,13.30
2019-05-06T23:43:44.076Z,13.67
2019-05-06T23:46:52.558Z,14.05
2019-05-06T23:49:57.738Z,16.23
2019-05-06T23:53:03.654Z,14.43
2019-05-06T23:56:09.106Z,15.60
2019-05-06T23:58:38.858Z,14.33
